createdAt,value
2023-03-29T00:01:00.160Z,4.54
2023-03-29T00:04:04.322Z,4.56
2023-03-29T00:07:07.233Z,4.51
2023-03-29T00:10:11.112Z,4.50
2023-03-29T00:13:13.603Z,4.47
2023-03-29T00:16:15.842Z,4.41
2023-03-29T00:19:18.622Z,4.30
2023-03-29T00:22:21.421Z,4.29
2023-03-29T00:25:23.654Z,4.25
2023-03-29T00:28:25.955Z,4.19
2023-03-29T00:31:29.003Z,4.12
2023-03-29T00:34:31.323Z,4.05
2023-03-29T00:37:33.634Z,3.99
2023-03-29T00:40:42.532Z,4.00
2023-03-29T00:43:52.677Z,3.97
2023-03-29T00:46:55.888Z,3.90
2023-03-29T00:50:03.091Z,3.89
2023-03-29T00:53:15.190Z,3.85
2023-03-29T00:56:21.703Z,3.90
2023-03-29T00:59:25.810Z,3.96
2023-03-29T01:02:34.506Z,3.95
2023-03-29T01:05:40.538Z,3.87
2023-03-29T01:08:52.958Z,3.80
2023-03-29T01:11:57.001Z,3.71
2023-03-29T01:15:04.455Z,3.77
2023-03-29T01:18:06.868Z,3.78
2023-03-29T01:21:32.360Z,3.80
2023-03-29T01:25:16.905Z,3.72
2023-03-29T01:28:22.869Z,3.73
2023-03-29T01:31:31.545Z,3.75
2023-03-29T01:34:54.786Z,3.76
2023-03-29T01:38:03.155Z,3.77
2023-03-29T01:41:05.746Z,3.80
2023-03-29T01:44:17.353Z,3.81
2023-03-29T01:47:22.534Z,3.81
2023-03-29T01:50:37.824Z,3.80
2023-03-29T01:53:52.021Z,3.85
2023-03-29T01:56:57.155Z,3.74
2023-03-29T02:00:00.854Z,3.66
2023-03-29T02:03:07.260Z,3.67
2023-03-29T02:06:13.481Z,3.57
2023-03-29T02:09:16.734Z,3.52
2023-03-29T02:12:19.201Z,3.43
2023-03-29T02:15:21.778Z,3.37
2023-03-29T02:18:24.780Z,3.30
2023-03-29T02:21:31.557Z,3.17
2023-03-29T02:24:36.549Z,3.12
2023-03-29T02:27:39.548Z,3.09
2023-03-29T02:30:41.755Z,2.91
2023-03-29T02:33:53.056Z,2.81
2023-03-29T02:37:01.021Z,2.81
2023-03-29T02:40:12.538Z,2.73
2023-03-29T02:43:15.938Z,2.75
2023-03-29T02:46:19.062Z,2.73
2023-03-29T02:49:21.579Z,2.73
2023-03-29T02:52:33.548Z,2.80
2023-03-29T02:55:36.214Z,2.83
2023-03-29T02:58:38.705Z,2.88
2023-03-29T03:01:43.846Z,2.94
2023-03-29T03:04:46.208Z,2.84
2023-03-29T03:07:48.956Z,2.86
2023-03-29T03:10:51.193Z,2.94
2023-03-29T03:13:54.525Z,2.85
2023-03-29T03:16:57.870Z,2.72
2023-03-29T03:20:00.158Z,2.53
2023-03-29T03:23:03.461Z,2.56
2023-03-29T03:26:06.057Z,2.46
2023-03-29T03:29:09.023Z,2.43
2023-03-29T03:32:41.509Z,2.45
2023-03-29T03:36:11.310Z,2.54
2023-03-29T03:39:13.808Z,2.48
2023-03-29T03:42:17.075Z,2.49
2023-03-29T03:45:21.141Z,2.40
2023-03-29T03:48:47.039Z,2.45
2023-03-29T03:51:56.927Z,2.38
2023-03-29T03:54:59.524Z,2.47
2023-03-29T03:58:24.460Z,2.48
2023-03-29T04:01:27.439Z,2.44
2023-03-29T04:04:49.163Z,2.39
2023-03-29T04:07:54.308Z,2.35
2023-03-29T04:11:12.419Z,2.47
2023-03-29T04:14:17.308Z,2.46
2023-03-29T04:17:38.476Z,2.55
2023-03-29T04:21:04.395Z,2.48
2023-03-29T04:24:08.996Z,2.54
2023-03-29T04:27:13.512Z,2.67
2023-03-29T04:30:15.843Z,2.81
2023-03-29T04:33:53.409Z,2.85
2023-03-29T04:36:56.416Z,2.92
2023-03-29T04:40:04.892Z,3.02
2023-03-29T04:43:18.856Z,3.05
2023-03-29T04:46:30.859Z,2.98
2023-03-29T04:49:58.351Z,3.09
2023-03-29T04:53:12.991Z,3.09
2023-03-29T04:56:16.510Z,3.14
2023-03-29T04:59:41.509Z,3.33
2023-03-29T05:02:59.137Z,3.48
2023-03-29T05:06:07.623Z,3.69
2023-03-29T05:09:11.486Z,3.77
2023-03-29T05:12:26.305Z,3.85
2023-03-29T05:15:30.019Z,3.96
2023-03-29T05:18:32.261Z,4.03
2023-03-29T05:21:35.344Z,4.06
2023-03-29T05:24:42.152Z,4.12
2023-03-29T05:27:53.152Z,4.24
2023-03-29T05:31:04.591Z,4.33
2023-03-29T05:34:09.063Z,4.41
2023-03-29T05:37:16.378Z,4.56
2023-03-29T05:40:27.480Z,4.69
2023-03-29T05:43:54.485Z,4.74
2023-03-29T05:46:59.758Z,4.86
2023-03-29T05:50:02.081Z,4.88
2023-03-29T05:53:04.360Z,4.87
2023-03-29T05:56:08.721Z,4.96
2023-03-29T05:59:11.426Z,5.00
2023-03-29T06:02:16.040Z,5.10
2023-03-29T06:05:23.344Z,5.26
2023-03-29T06:08:35.024Z,5.32
2023-03-29T06:11:58.953Z,5.40
2023-03-29T06:15:08.982Z,5.50
2023-03-29T06:18:17.610Z,5.53
2023-03-29T06:21:19.962Z,5.55
2023-03-29T06:24:22.610Z,5.55
2023-03-29T06:27:31.596Z,5.65
2023-03-29T06:30:34.392Z,5.78
2023-03-29T06:33:38.166Z,5.84
2023-03-29T06:37:03.603Z,5.97
2023-03-29T06:40:07.040Z,6.19
2023-03-29T06:43:19.788Z,6.84
2023-03-29T06:46:30.073Z,7.59
2023-03-29T06:49:35.984Z,8.29
2023-03-29T06:53:01.691Z,9.18
2023-03-29T06:56:09.390Z,10.30
2023-03-29T06:59:18.944Z,10.18
2023-03-29T07:02:47.386Z,8.59
2023-03-29T07:05:52.204Z,8.13
2023-03-29T07:08:59.747Z,7.88
2023-03-29T07:12:23.366Z,7.74
2023-03-29T07:15:27.763Z,7.66
2023-03-29T07:18:45.644Z,7.69
2023-03-29T07:21:57.059Z,7.73
2023-03-29T07:25:22.502Z,8.17
2023-03-29T07:28:25.320Z,8.86
2023-03-29T07:31:33.036Z,9.40
2023-03-29T07:34:55.725Z,10.21
2023-03-29T07:38:05.712Z,10.98
2023-03-29T07:41:08.676Z,11.57
2023-03-29T07:44:21.651Z,13.45
2023-03-29T07:47:24.722Z,13.24
2023-03-29T07:50:27.531Z,11.97
2023-03-29T07:53:33.951Z,11.10
2023-03-29T07:56:39.844Z,10.35
2023-03-29T07:59:54.213Z,9.99
2023-03-29T08:03:03.794Z,9.86
2023-03-29T08:06:07.138Z,9.93
2023-03-29T08:09:09.484Z,10.12
2023-03-29T08:12:12.197Z,9.92
2023-03-29T08:15:15.478Z,9.80
2023-03-29T08:18:18.032Z,9.75
2023-03-29T08:21:20.425Z,9.70
2023-03-29T08:24:24.956Z,9.70
2023-03-29T08:27:32.464Z,9.84
2023-03-29T08:30:35.336Z,10.18
2023-03-29T08:33:39.167Z,10.48
2023-03-29T08:36:59.948Z,10.85
2023-03-29T08:40:22.470Z,11.39
2023-03-29T08:44:21.576Z,11.77
2023-03-29T08:47:41.632Z,12.66
2023-03-29T08:50:52.808Z,13.15
2023-03-29T08:54:17.123Z,13.43
2023-03-29T08:57:45.244Z,13.90
2023-03-29T09:00:54.697Z,14.58
2023-03-29T09:04:07.376Z,15.38
2023-03-29T09:07:24.029Z,15.52
2023-03-29T09:10:41.125Z,14.98
2023-03-29T09:13:57.315Z,14.82
2023-03-29T09:17:01.695Z,14.68
2023-03-29T09:20:27.966Z,14.48
2023-03-29T09:23:47.016Z,14.66
2023-03-29T09:27:27.755Z,14.94
2023-03-29T09:30:41.721Z,14.98
2023-03-29T09:33:52.504Z,14.58
2023-03-29T09:37:09.155Z,14.41
2023-03-29T09:40:16.643Z,13.92
2023-03-29T09:43:41.675Z,13.94
2023-03-29T09:46:57.090Z,13.47
2023-03-29T09:50:34.087Z,12.98
2023-03-29T09:53:39.408Z,12.42
2023-03-29T09:57:15.884Z,11.74
2023-03-29T10:00:19.680Z,12.11
2023-03-29T10:03:27.434Z,12.50
2023-03-29T10:06:49.216Z,12.55
2023-03-29T10:09:52.695Z,12.86
2023-03-29T10:13:04.395Z,12.44
2023-03-29T10:16:09.245Z,12.28
2023-03-29T10:19:15.250Z,12.39
2023-03-29T10:22:32.357Z,12.04
2023-03-29T10:25:42.287Z,12.03
2023-03-29T10:28:45.417Z,12.10
2023-03-29T10:31:48.078Z,11.92
2023-03-29T10:34:51.275Z,11.45
2023-03-29T10:37:56.259Z,11.42
2023-03-29T10:41:17.355Z,11.35
2023-03-29T10:44:27.736Z,11.47
2023-03-29T10:47:34.471Z,11.43
2023-03-29T10:50:38.241Z,11.44
2023-03-29T10:53:41.147Z,11.41
2023-03-29T10:56:47.380Z,11.27
2023-03-29T11:00:11.223Z,11.23
2023-03-29T11:03:21.390Z,11.26
2023-03-29T11:06:33.537Z,10.99
2023-03-29T11:10:15.761Z,10.89
2023-03-29T11:13:23.994Z,10.97
2023-03-29T11:17:18.845Z,10.96
2023-03-29T11:20:27.145Z,10.80
2023-03-29T11:24:13.802Z,10.62
2023-03-29T11:27:37.620Z,10.95
2023-03-29T11:30:58.456Z,10.76
2023-03-29T11:34:43.218Z,10.60
2023-03-29T11:48:21.480Z,11.23
2023-03-29T11:51:27.232Z,11.08
2023-03-29T11:54:49.345Z,11.14
2023-03-29T11:58:20.668Z,11.31
2023-03-29T12:01:31.413Z,11.42
2023-03-29T12:04:38.719Z,11.17
2023-03-29T12:08:05.291Z,11.38
2023-03-29T12:11:17.426Z,11.53
2023-03-29T12:14:26.086Z,11.46
2023-03-29T12:17:34.579Z,10.97
2023-03-29T12:20:39.808Z,10.74
2023-03-29T12:23:45.446Z,10.72
2023-03-29T12:26:47.978Z,11.01
2023-03-29T12:30:02.583Z,10.82
2023-03-29T12:33:32.035Z,11.08
2023-03-29T12:37:22.143Z,11.13
2023-03-29T12:40:45.726Z,10.72
2023-03-29T12:44:23.555Z,10.66
2023-03-29T12:47:43.293Z,10.71
2023-03-29T12:50:53.085Z,10.46
2023-03-29T12:54:21.202Z,10.75
2023-03-29T12:57:39.440Z,10.96
2023-03-29T13:00:44.564Z,11.07
2023-03-29T13:03:52.724Z,11.16
2023-03-29T13:07:05.743Z,11.22
2023-03-29T13:10:09.564Z,11.34
2023-03-29T13:13:19.417Z,11.36
2023-03-29T13:16:29.930Z,11.33
2023-03-29T13:20:12.521Z,11.32
2023-03-29T13:23:43.852Z,11.19
2023-03-29T13:27:18.365Z,11.23
2023-03-29T13:30:34.814Z,11.22
2023-03-29T13:33:52.943Z,11.12
2023-03-29T13:37:00.946Z,11.23
2023-03-29T13:40:32.901Z,11.35
2023-03-29T13:43:36.569Z,11.47
2023-03-29T13:46:41.481Z,11.28
2023-03-29T13:49:51.746Z,11.45
2023-03-29T13:52:58.490Z,11.64
2023-03-29T13:56:01.773Z,11.75
2023-03-29T13:59:14.461Z,11.73
2023-03-29T14:02:26.342Z,11.83
2023-03-29T14:05:40.047Z,11.97
2023-03-29T14:08:43.961Z,12.00
2023-03-29T14:11:47.425Z,12.04
2023-03-29T14:14:58.795Z,12.10
2023-03-29T14:18:02.128Z,12.15
2023-03-29T14:21:04.855Z,11.94
2023-03-29T14:24:12.829Z,11.40
2023-03-29T14:27:16.060Z,11.35
2023-03-29T14:30:28.716Z,11.07
2023-03-29T14:33:38.167Z,11.20
2023-03-29T14:36:41.722Z,10.97
2023-03-29T14:39:44.664Z,11.17
2023-03-29T14:42:48.605Z,11.37
2023-03-29T14:45:51.167Z,11.41
2023-03-29T14:48:54.247Z,11.40
2023-03-29T14:51:56.673Z,11.36
2023-03-29T14:55:00.907Z,11.47
2023-03-29T14:58:03.252Z,11.62
2023-03-29T15:01:19.865Z,11.70
2023-03-29T15:04:22.286Z,11.69
2023-03-29T15:07:27.032Z,11.49
2023-03-29T15:10:32.270Z,11.33
2023-03-29T15:13:34.590Z,11.13
2023-03-29T15:16:42.730Z,11.22
2023-03-29T15:19:45.006Z,11.28
2023-03-29T15:23:04.067Z,10.58
2023-03-29T15:26:32.680Z,10.40
2023-03-29T15:29:37.375Z,10.68
2023-03-29T15:32:39.909Z,10.65
2023-03-29T15:35:43.185Z,10.58
2023-03-29T15:38:49.407Z,10.38
2023-03-29T15:41:52.791Z,10.33
2023-03-29T15:44:56.313Z,10.28
2023-03-29T15:48:02.053Z,10.44
2023-03-29T15:51:06.694Z,10.31
2023-03-29T15:54:09.454Z,10.39
2023-03-29T15:57:16.203Z,10.37
2023-03-29T16:00:19.840Z,10.48
2023-03-29T16:03:22.449Z,10.53
2023-03-29T16:06:25.108Z,10.44
2023-03-29T16:09:27.406Z,10.11
2023-03-29T16:12:29.654Z,10.13
2023-03-29T16:15:33.611Z,10.20
2023-03-29T16:18:36.267Z,10.27
2023-03-29T16:21:38.699Z,10.39
2023-03-29T16:24:41.334Z,10.53
2023-03-29T16:27:44.163Z,10.47
2023-03-29T16:30:46.590Z,10.16
2023-03-29T16:33:49.034Z,10.29
2023-03-29T16:36:53.010Z,10.31
2023-03-29T16:39:56.123Z,10.22
2023-03-29T16:42:58.321Z,10.22
2023-03-29T16:46:03.371Z,10.17
2023-03-29T16:49:07.965Z,10.25
2023-03-29T16:52:10.333Z,10.32
2023-03-29T16:55:13.628Z,10.26
2023-03-29T16:58:16.204Z,10.17
2023-03-29T17:01:19.270Z,10.20
2023-03-29T17:04:21.451Z,10.05
2023-03-29T17:07:23.526Z,10.03
2023-03-29T17:10:25.700Z,9.98
2023-03-29T17:13:28.067Z,9.96
2023-03-29T17:16:30.491Z,10.02
2023-03-29T17:19:32.836Z,10.06
2023-03-29T17:22:35.873Z,9.98
2023-03-29T17:25:38.127Z,10.00
2023-03-29T17:28:40.430Z,9.94
2023-03-29T17:31:47.715Z,10.01
2023-03-29T17:34:50.569Z,10.13
2023-03-29T17:37:52.825Z,10.13
2023-03-29T17:40:55.604Z,10.06
2023-03-29T17:43:57.920Z,10.01
2023-03-29T17:47:00.969Z,10.13
2023-03-29T17:50:04.834Z,10.20
2023-03-29T17:53:07.272Z,10.14
2023-03-29T17:56:09.509Z,10.01
2023-03-29T17:59:11.775Z,9.97
2023-03-29T18:02:19.648Z,10.07
2023-03-29T18:05:21.933Z,10.04
2023-03-29T18:08:24.213Z,10.07
2023-03-29T18:11:27.300Z,10.11
2023-03-29T18:14:29.443Z,10.15
2023-03-29T18:17:31.759Z,10.19
2023-03-29T18:20:34.137Z,10.23
2023-03-29T18:23:39.952Z,10.20
2023-03-29T18:26:42.321Z,10.20
2023-03-29T18:29:46.048Z,10.23
2023-03-29T18:32:48.439Z,10.25
2023-03-29T18:35:51.447Z,10.26
2023-03-29T18:38:55.783Z,10.28
2023-03-29T18:41:58.043Z,10.28
2023-03-29T18:45:00.298Z,10.30
2023-03-29T18:48:05.355Z,10.31
2023-03-29T18:51:09.402Z,10.31
2023-03-29T18:54:11.916Z,10.30
2023-03-29T18:57:14.253Z,10.27
2023-03-29T19:00:17.583Z,10.22
2023-03-29T19:03:19.921Z,10.25
2023-03-29T19:06:22.261Z,10.22
2023-03-29T19:09:24.590Z,10.23
2023-03-29T19:12:26.873Z,10.23
2023-03-29T19:15:29.140Z,10.20
2023-03-29T19:18:31.528Z,10.18
2023-03-29T19:21:33.904Z,10.16
2023-03-29T19:24:36.271Z,10.16
2023-03-29T19:27:38.516Z,10.11
2023-03-29T19:30:41.312Z,10.10
2023-03-29T19:33:43.598Z,10.12
2023-03-29T19:36:46.033Z,10.10
2023-03-29T19:39:48.255Z,10.09
2023-03-29T19:42:50.568Z,10.09
2023-03-29T19:45:52.818Z,10.11
2023-03-29T19:48:56.192Z,10.13
2023-03-29T19:51:59.122Z,10.13
2023-03-29T19:55:02.112Z,10.13
2023-03-29T19:58:05.537Z,10.14
2023-03-29T20:01:07.825Z,10.15
2023-03-29T20:04:10.170Z,10.09
2023-03-29T20:07:13.005Z,10.06
2023-03-29T20:10:15.510Z,10.00
2023-03-29T20:13:27.686Z,9.97
2023-03-29T20:16:42.754Z,9.98
2023-03-29T20:19:45.012Z,10.02
2023-03-29T20:22:47.875Z,10.03
2023-03-29T20:25:50.144Z,9.99
2023-03-29T20:28:52.415Z,9.96
2023-03-29T20:31:54.717Z,9.91
2023-03-29T20:34:57.018Z,9.85
2023-03-29T20:37:59.311Z,9.82
2023-03-29T20:41:02.913Z,9.81
2023-03-29T20:44:05.689Z,9.75
2023-03-29T20:47:08.151Z,9.68
2023-03-29T20:50:10.780Z,9.67
2023-03-29T20:53:13.454Z,9.67
2023-03-29T20:56:15.685Z,9.46
2023-03-29T20:59:18.067Z,9.49
2023-03-29T21:02:22.976Z,9.54
2023-03-29T21:05:30.164Z,9.53
2023-03-29T21:08:32.454Z,9.45
2023-03-29T21:11:34.722Z,9.45
2023-03-29T21:14:37.907Z,9.45
2023-03-29T21:17:40.935Z,9.32
2023-03-29T21:20:44.120Z,9.38
2023-03-29T21:23:46.416Z,9.40
2023-03-29T21:26:48.748Z,9.47
2023-03-29T21:29:51.274Z,9.49
2023-03-29T21:32:53.582Z,9.49
2023-03-29T21:35:55.852Z,9.52
2023-03-29T21:38:58.118Z,9.41
2023-03-29T21:42:00.480Z,9.29
2023-03-29T21:45:03.084Z,9.34
2023-03-29T21:48:05.722Z,9.34
2023-03-29T21:51:08.622Z,9.39
2023-03-29T21:54:11.419Z,9.41
2023-03-29T21:57:13.703Z,9.25
2023-03-29T22:00:17.718Z,9.20
2023-03-29T22:03:19.991Z,9.23
2023-03-29T22:06:22.360Z,9.24
2023-03-29T22:09:26.635Z,9.21
2023-03-29T22:12:28.887Z,9.22
2023-03-29T22:15:35.509Z,9.28
2023-03-29T22:18:44.302Z,9.33
2023-03-29T22:21:48.433Z,9.39
2023-03-29T22:24:55.123Z,9.43
2023-03-29T22:27:57.388Z,9.42
2023-03-29T22:31:07.983Z,9.42
2023-03-29T22:34:10.515Z,9.32
2023-03-29T22:37:12.803Z,9.25
2023-03-29T22:40:15.552Z,9.25
2023-03-29T22:43:17.854Z,9.24
2023-03-29T22:46:20.990Z,9.13
2023-03-29T22:49:23.174Z,9.06
2023-03-29T22:52:26.219Z,8.98
2023-03-29T22:55:28.349Z,8.99
2023-03-29T22:58:30.653Z,9.01
2023-03-29T23:01:32.998Z,9.04
2023-03-29T23:04:36.652Z,9.03
2023-03-29T23:07:38.997Z,9.02
2023-03-29T23:10:41.328Z,9.00
2023-03-29T23:13:43.631Z,8.97
2023-03-29T23:16:46.125Z,9.01
2023-03-29T23:19:48.445Z,8.93
2023-03-29T23:22:50.728Z,8.90
2023-03-29T23:25:53.774Z,8.84
2023-03-29T23:28:57.448Z,8.84
2023-03-29T23:31:59.737Z,8.85
2023-03-29T23:35:04.494Z,8.85
2023-03-29T23:38:08.514Z,8.88
2023-03-29T23:41:12.939Z,8.87
2023-03-29T23:44:15.465Z,8.95
2023-03-29T23:47:17.682Z,8.94
2023-03-29T23:50:20.010Z,8.99
2023-03-29T23:53:22.249Z,9.00
2023-03-29T23:56:24.938Z,9.01
2023-03-29T23:59:29.980Z,8.92
